Time;durP1;ratioP1;P1;durP2;ratioP2;P2;SDS_P1;SDS_P2;PMS_P1;PMS_P2;Temp;Humidity;BMP_temperature;BMP_pressure;BME280_temperature;BME280_humidity;BME280_pressure;Samples;Min_cycle;Max_cycle;Signal;HPM_P1;HPM_P2
2021/09/21 00:01:10;;;;;;;5.68;2.92;;;;;;;;;;4898017;29;20052;-80
2021/09/21 00:03:36;;;;;;;5.95;2.80;;;;;;;;;;4897963;29;20538;-79
2021/09/21 00:06:04;;;;;;;4.35;2.22;;;;;;;;;;4896847;29;20040;-80
2021/09/21 00:08:30;;;;;;;5.93;2.80;;;;;;;;;;4898082;29;20084;-79
2021/09/21 00:10:57;;;;;;;4.85;2.60;;;;;;;;;;4896736;29;20037;-81
2021/09/21 00:13:24;;;;;;;4.45;2.63;;;;;;;;;;4897930;29;20025;-81
2021/09/21 00:15:51;;;;;;;6.13;2.60;;;;;;;;;;4906412;29;20052;-80
2021/09/21 00:18:18;;;;;;;5.70;2.67;;;;;;;;;;4899787;29;20024;-80
2021/09/21 00:20:44;;;;;;;5.43;2.90;;;;;;;;;;4917097;29;20443;-80
2021/09/21 00:23:10;;;;;;;5.10;2.53;;;;;;;;;;4916693;29;20076;-79
2021/09/21 00:25:37;;;;;;;4.68;2.85;;;;;;;;;;4916633;29;20040;-78
2021/09/21 00:28:03;;;;;;;7.55;2.85;;;;;;;;;;4899753;29;20056;-77
2021/09/21 00:30:30;;;;;;;5.97;2.65;;;;;;;;;;4899735;29;20069;-78
2021/09/21 00:33:04;;;;;;;5.38;2.50;;;;;;;;;;4900349;29;20111;-80
2021/09/21 00:35:30;;;;;;;5.47;3.05;;;;;;;;;;4903028;29;20401;-76
2021/09/21 00:37:56;;;;;;;9.50;2.90;;;;;;;;;;4903063;29;20051;-78
2021/09/21 00:40:23;;;;;;;4.82;2.83;;;;;;;;;;4919897;29;20032;-79
2021/09/21 00:42:49;;;;;;;4.63;2.50;;;;;;;;;;4920441;29;20071;-79
2021/09/21 00:45:18;;;;;;;5.57;2.75;;;;;;;;;;4919610;29;20120;-79
2021/09/21 00:47:44;;;;;;;4.40;2.78;;;;;;;;;;4902772;29;20040;-79
2021/09/21 00:50:11;;;;;;;4.50;2.60;;;;;;;;;;4902734;29;20036;-78
2021/09/21 00:52:37;;;;;;;5.45;2.58;;;;;;;;;;4920212;29;20028;-79
2021/09/21 00:55:04;;;;;;;4.95;2.38;;;;;;;;;;4920116;29;20055;-79
2021/09/21 00:57:35;;;;;;;8.38;3.15;;;;;;;;;;4919530;29;20035;-78
2021/09/21 01:00:02;;;;;;;5.63;2.50;;;;;;;;;;4919540;29;20040;-79
2021/09/21 01:02:28;;;;;;;5.90;3.28;;;;;;;;;;4902525;29;20036;-78
2021/09/21 01:04:55;;;;;;;11.18;3.08;;;;;;;;;;4919370;29;20104;-79
2021/09/21 01:07:21;;;;;;;5.85;2.53;;;;;;;;;;4919535;29;20036;-79
2021/09/21 01:09:47;;;;;;;5.25;2.70;;;;;;;;;;4919410;29;20098;-79
2021/09/21 01:12:13;;;;;;;6.40;3.22;;;;;;;;;;4919309;29;20029;-77
2021/09/21 01:14:40;;;;;;;5.68;3.03;;;;;;;;;;4902337;29;20059;-79
2021/09/21 01:17:06;;;;;;;4.85;3.03;;;;;;;;;;4919096;29;20446;-79
2021/09/21 01:19:32;;;;;;;5.35;2.83;;;;;;;;;;4919188;29;20020;-79
2021/09/21 01:21:59;;;;;;;12.27;3.13;;;;;;;;;;4919639;29;20087;-79
2021/09/21 01:24:25;;;;;;;5.90;3.35;;;;;;;;;;4919065;29;20028;-78
2021/09/21 01:26:51;;;;;;;9.75;2.83;;;;;;;;;;4919106;29;20043;-78
2021/09/21 01:29:18;;;;;;;5.03;2.72;;;;;;;;;;4919038;29;20537;-79
2021/09/21 01:31:44;;;;;;;4.45;2.60;;;;;;;;;;4902064;29;20032;-79
2021/09/21 01:34:17;;;;;;;5.65;2.92;;;;;;;;;;4918904;29;20052;-79
2021/09/21 01:36:44;;;;;;;4.18;2.22;;;;;;;;;;4901973;29;20038;-79
2021/09/21 01:39:10;;;;;;;5.45;3.13;;;;;;;;;;4918767;29;20153;-78
2021/09/21 01:41:36;;;;;;;5.25;2.80;;;;;;;;;;4918817;29;20024;-78
2021/09/21 01:44:02;;;;;;;5.70;3.10;;;;;;;;;;4918862;29;20108;-76
2021/09/21 01:46:29;;;;;;;8.77;3.30;;;;;;;;;;4901614;29;20179;-78
2021/09/21 01:48:55;;;;;;;5.40;3.05;;;;;;;;;;4918646;29;20036;-78
2021/09/21 01:59:03;;;;;;;7.00;3.47;;;;;;;;;;4918543;29;20047;-79
2021/09/21 02:01:29;;;;;;;6.35;3.00;;;;;;;;;;4901471;29;20020;-78
2021/09/21 02:03:56;;;;;;;4.75;2.70;;;;;;;;;;4901348;29;20042;-79
2021/09/21 02:06:33;;;;;;;6.60;3.30;;;;;;;;;;4918312;29;20401;-79
2021/09/21 02:08:59;;;;;;;6.28;3.38;;;;;;;;;;4901278;29;20027;-79
2021/09/21 02:11:26;;;;;;;4.38;2.40;;;;;;;;;;4918275;29;20048;-79
2021/09/21 02:13:56;;;;;;;5.35;3.13;;;;;;;;;;4918617;29;20499;-79
2021/09/21 02:16:26;;;;;;;4.47;2.92;;;;;;;;;;4918211;29;20051;-79
2021/09/21 02:18:53;;;;;;;5.35;2.80;;;;;;;;;;4901123;29;20038;-79
2021/09/21 02:21:19;;;;;;;4.32;2.50;;;;;;;;;;4918208;29;20541;-79
2021/09/21 02:23:46;;;;;;;4.20;2.67;;;;;;;;;;4918581;29;20055;-79
2021/09/21 02:26:13;;;;;;;9.13;3.40;;;;;;;;;;4918236;29;20044;-79
2021/09/21 02:28:39;;;;;;;5.90;3.00;;;;;;;;;;4917990;29;20024;-79
2021/09/21 02:31:06;;;;;;;5.18;3.20;;;;;;;;;;4917960;29;20036;-79
2021/09/21 02:33:32;;;;;;;4.90;2.75;;;;;;;;;;4918433;29;20031;-79
2021/09/21 02:35:58;;;;;;;5.47;3.00;;;;;;;;;;4917841;29;20028;-79
2021/09/21 02:38:25;;;;;;;7.25;3.00;;;;;;;;;;4917828;29;20028;-78
2021/09/21 02:40:51;;;;;;;7.03;3.25;;;;;;;;;;4900763;29;20036;-79
2021/09/21 02:43:17;;;;;;;7.47;3.38;;;;;;;;;;4917680;29;20024;-78
2021/09/21 02:45:44;;;;;;;6.57;3.35;;;;;;;;;;4900608;29;20507;-77
2021/09/21 02:48:10;;;;;;;5.25;2.70;;;;;;;;;;4900738;29;20028;-79
2021/09/21 02:50:36;;;;;;;6.63;2.83;;;;;;;;;;4917658;29;20036;-79
2021/09/21 02:53:03;;;;;;;5.93;3.28;;;;;;;;;;4900603;29;20501;-77
2021/09/21 02:55:29;;;;;;;7.20;3.38;;;;;;;;;;4899777;29;20028;-78
2021/09/21 02:57:55;;;;;;;5.50;3.17;;;;;;;;;;4918077;29;20449;-79
2021/09/21 03:00:25;;;;;;;6.63;3.28;;;;;;;;;;4900675;29;20401;-81
2021/09/21 03:02:52;;;;;;;5.25;2.85;;;;;;;;;;4901114;29;20020;-77
2021/09/21 03:05:23;;;;;;;6.65;3.10;;;;;;;;;;4900351;29;20494;-80
2021/09/21 03:07:58;;;;;;;6.30;3.40;;;;;;;;;;4900349;29;20024;-79
2021/09/21 03:13:40;;;;;;;6.90;3.50;;;;;;;;;;4917319;29;20029;-79
2021/09/21 03:18:52;;;;;;;4.55;2.67;;;;;;;;;;4917537;29;20067;-80
2021/09/21 03:21:18;;;;;;;6.63;3.38;;;;;;;;;;4917241;29;20035;-78
2021/09/21 03:23:45;;;;;;;6.50;3.40;;;;;;;;;;4917217;29;20438;-80
2021/09/21 03:26:11;;;;;;;7.97;3.83;;;;;;;;;;4900115;29;20516;-79
2021/09/21 03:28:37;;;;;;;5.90;3.42;;;;;;;;;;4917141;29;20563;-79
2021/09/21 03:31:03;;;;;;;6.28;3.53;;;;;;;;;;4900199;29;20123;-78
2021/09/21 03:33:30;;;;;;;7.40;3.65;;;;;;;;;;4900151;29;20024;-80
2021/09/21 03:35:56;;;;;;;5.38;3.28;;;;;;;;;;4917087;29;20441;-79
2021/09/21 03:38:23;;;;;;;5.88;3.28;;;;;;;;;;4917521;29;20335;-79
2021/09/21 03:40:49;;;;;;;6.78;3.72;;;;;;;;;;4917024;29;20110;-79
2021/09/21 03:43:15;;;;;;;7.95;3.80;;;;;;;;;;4916993;29;20032;-79
2021/09/21 03:45:41;;;;;;;14.63;3.83;;;;;;;;;;4916962;29;20091;-78
2021/09/21 03:48:08;;;;;;;7.75;3.72;;;;;;;;;;4917027;29;20059;-78
2021/09/21 03:50:34;;;;;;;6.82;3.30;;;;;;;;;;4900769;29;20517;-78
2021/09/21 03:53:01;;;;;;;7.10;3.50;;;;;;;;;;4900028;29;20025;-78
2021/09/21 03:55:27;;;;;;;8.65;3.40;;;;;;;;;;4899981;29;20036;-79
2021/09/21 03:57:54;;;;;;;6.88;3.55;;;;;;;;;;4916966;29;20020;-79
2021/09/21 04:00:20;;;;;;;10.00;3.90;;;;;;;;;;4916943;29;20066;-79
2021/09/21 04:02:46;;;;;;;6.38;3.00;;;;;;;;;;4916820;29;20389;-77
2021/09/21 04:05:13;;;;;;;6.93;3.60;;;;;;;;;;4917296;29;20461;-78
2021/09/21 04:07:39;;;;;;;5.20;2.70;;;;;;;;;;4918594;29;20084;-79
2021/09/21 04:10:06;;;;;;;6.50;3.45;;;;;;;;;;4903454;29;20039;-79
2021/09/21 04:12:35;;;;;;;7.15;3.42;;;;;;;;;;4920388;29;20450;-78
2021/09/21 04:15:01;;;;;;;7.10;2.92;;;;;;;;;;4920194;29;20031;-77
2021/09/21 04:17:27;;;;;;;5.18;2.80;;;;;;;;;;4903469;29;20143;-78
2021/09/21 04:19:53;;;;;;;5.45;3.00;;;;;;;;;;4920741;29;20028;-79
2021/09/21 04:22:20;;;;;;;5.85;2.90;;;;;;;;;;4920484;29;20035;-79
2021/09/21 04:24:46;;;;;;;5.07;2.95;;;;;;;;;;4920119;29;20032;-79
2021/09/21 04:27:13;;;;;;;6.72;2.75;;;;;;;;;;4920134;29;20032;-78
2021/09/21 04:29:39;;;;;;;4.65;2.53;;;;;;;;;;4903132;29;20043;-78
2021/09/21 04:32:06;;;;;;;6.93;3.05;;;;;;;;;;4903035;29;20032;-76
2021/09/21 04:34:33;;;;;;;5.57;2.22;;;;;;;;;;4903042;29;20039;-79
2021/09/21 04:37:00;;;;;;;8.25;2.50;;;;;;;;;;4919987;29;20039;-80
2021/09/21 04:39:27;;;;;;;3.80;2.25;;;;;;;;;;4919824;29;20034;-80
2021/09/21 04:41:53;;;;;;;8.13;2.40;;;;;;;;;;4920414;29;20036;-84
2021/09/21 04:44:20;;;;;;;5.43;2.47;;;;;;;;;;4920249;29;20028;-79
2021/09/21 04:46:46;;;;;;;4.65;2.33;;;;;;;;;;4919802;29;20043;-80
2021/09/21 04:49:13;;;;;;;4.75;2.50;;;;;;;;;;4919747;29;20079;-77
2021/09/21 04:51:39;;;;;;;3.75;2.10;;;;;;;;;;4920242;29;20371;-78
2021/09/21 04:54:06;;;;;;;4.60;2.20;;;;;;;;;;4919649;29;20083;-80
2021/09/21 04:56:32;;;;;;;5.43;2.05;;;;;;;;;;4919674;29;20075;-78
2021/09/21 04:58:59;;;;;;;5.78;2.60;;;;;;;;;;4919572;29;20032;-79
2021/09/21 05:01:25;;;;;;;5.13;2.00;;;;;;;;;;4902545;29;20032;-79
2021/09/21 05:03:51;;;;;;;4.80;2.10;;;;;;;;;;4919503;29;20103;-78
2021/09/21 05:06:17;;;;;;;4.20;2.22;;;;;;;;;;4902387;29;20500;-77
2021/09/21 05:08:44;;;;;;;6.13;2.25;;;;;;;;;;4902519;29;20024;-78
2021/09/21 05:11:11;;;;;;;9.23;2.50;;;;;;;;;;4919260;29;20032;-76
2021/09/21 05:13:38;;;;;;;4.65;2.08;;;;;;;;;;4918635;29;20072;-77
2021/09/21 05:16:04;;;;;;;5.28;1.95;;;;;;;;;;4901882;29;20072;-77
2021/09/21 05:18:30;;;;;;;4.85;1.92;;;;;;;;;;4901159;29;20527;-77
2021/09/21 05:20:56;;;;;;;4.95;2.40;;;;;;;;;;4919668;29;20100;-77
2021/09/21 05:23:22;;;;;;;6.60;2.70;;;;;;;;;;4902267;29;20055;-77
2021/09/21 05:25:50;;;;;;;2.90;1.52;;;;;;;;;;4919011;29;20040;-77
2021/09/21 05:28:16;;;;;;;4.82;2.03;;;;;;;;;;4900859;29;20038;-80
2021/09/21 05:30:42;;;;;;;6.93;2.10;;;;;;;;;;4916910;29;20036;-81
2021/09/21 05:33:08;;;;;;;4.47;2.00;;;;;;;;;;4901207;29;20455;-77
2021/09/21 05:35:35;;;;;;;5.90;2.10;;;;;;;;;;4902023;29;20158;-76
2021/09/21 05:38:01;;;;;;;5.03;2.30;;;;;;;;;;4917910;29;20031;-76
2021/09/21 05:40:28;;;;;;;3.35;1.85;;;;;;;;;;4901119;29;20031;-79
2021/09/21 05:42:54;;;;;;;3.88;2.00;;;;;;;;;;4901966;29;20120;-76
2021/09/21 05:45:21;;;;;;;7.10;2.03;;;;;;;;;;4901737;29;20029;-80
2021/09/21 05:47:48;;;;;;;3.58;1.90;;;;;;;;;;4901807;29;20485;-76
2021/09/21 05:50:14;;;;;;;4.88;1.90;;;;;;;;;;4901685;29;20024;-76
2021/09/21 05:52:40;;;;;;;4.70;1.83;;;;;;;;;;4901804;29;20082;-77
2021/09/21 05:55:07;;;;;;;6.55;1.90;;;;;;;;;;4901575;29;20024;-78
2021/09/21 05:57:34;;;;;;;3.38;2.03;;;;;;;;;;4901500;29;20044;-78
2021/09/21 06:00:00;;;;;;;3.92;1.95;;;;;;;;;;4918994;29;20458;-77
2021/09/21 06:02:26;;;;;;;3.65;1.73;;;;;;;;;;4902204;29;20032;-78
2021/09/21 06:04:52;;;;;;;2.85;1.77;;;;;;;;;;4918288;29;20399;-79
2021/09/21 06:07:19;;;;;;;3.38;1.58;;;;;;;;;;4901395;29;20036;-79
2021/09/21 06:09:45;;;;;;;1.80;1.10;;;;;;;;;;4901290;29;20074;-77
2021/09/21 06:12:11;;;;;;;3.80;0.93;;;;;;;;;;4900885;29;20416;-78
2021/09/21 06:14:37;;;;;;;3.22;1.35;;;;;;;;;;4901209;29;20028;-79
2021/09/21 06:17:04;;;;;;;2.25;1.10;;;;;;;;;;4899888;29;20060;-80
2021/09/21 06:19:30;;;;;;;2.75;1.00;;;;;;;;;;4900323;29;20362;-78
2021/09/21 06:21:57;;;;;;;2.30;1.00;;;;;;;;;;4917202;29;20036;-79
2021/09/21 06:24:23;;;;;;;3.20;1.42;;;;;;;;;;4917706;29;20028;-78
2021/09/21 06:26:49;;;;;;;2.17;1.25;;;;;;;;;;4917650;29;20040;-78
2021/09/21 06:29:15;;;;;;;4.20;1.42;;;;;;;;;;4900191;29;20063;-79
2021/09/21 06:31:42;;;;;;;2.03;1.20;;;;;;;;;;4917167;29;20031;-76
2021/09/21 06:34:08;;;;;;;3.35;1.40;;;;;;;;;;4899813;29;20028;-79
2021/09/21 06:36:34;;;;;;;1.98;1.10;;;;;;;;;;4900406;29;20490;-77
2021/09/21 06:39:01;;;;;;;3.22;1.40;;;;;;;;;;4899936;29;20024;-76
2021/09/21 06:41:27;;;;;;;2.80;1.40;;;;;;;;;;4899913;29;20055;-77
2021/09/21 06:43:53;;;;;;;3.13;1.25;;;;;;;;;;4917444;29;20028;-76
2021/09/21 06:46:19;;;;;;;3.97;1.80;;;;;;;;;;4916861;29;20509;-76
2021/09/21 06:48:45;;;;;;;3.45;1.52;;;;;;;;;;4916881;29;20112;-77
2021/09/21 06:51:11;;;;;;;2.97;1.40;;;;;;;;;;4916867;29;20031;-77
2021/09/21 06:53:38;;;;;;;2.60;1.33;;;;;;;;;;4916936;29;20035;-78
2021/09/21 06:56:04;;;;;;;3.72;1.45;;;;;;;;;;4899824;29;20051;-77
2021/09/21 06:58:33;;;;;;;3.08;1.40;;;;;;;;;;4916780;29;20083;-78
2021/09/21 07:00:59;;;;;;;5.53;1.77;;;;;;;;;;4899701;29;20489;-78
2021/09/21 07:03:25;;;;;;;5.30;1.63;;;;;;;;;;4899596;29;20039;-78
2021/09/21 07:05:53;;;;;;;3.40;1.42;;;;;;;;;;4917599;29;20039;-78
2021/09/21 07:08:20;;;;;;;4.50;1.90;;;;;;;;;;4899524;29;20028;-83
2021/09/21 07:10:46;;;;;;;3.30;1.73;;;;;;;;;;4898935;29;20099;-77
2021/09/21 07:13:12;;;;;;;3.83;1.77;;;;;;;;;;4915202;29;20421;-78
2021/09/21 07:15:38;;;;;;;3.45;1.40;;;;;;;;;;4872607;29;1252052;-78
2021/09/21 07:18:04;;;;;;;3.17;1.88;;;;;;;;;;4915903;29;20241;-76
2021/09/21 07:20:30;;;;;;;2.97;1.60;;;;;;;;;;4898795;29;20040;-77
2021/09/21 07:22:56;;;;;;;1.98;1.38;;;;;;;;;;4915633;29;20083;-77
2021/09/21 07:25:24;;;;;;;3.20;1.30;;;;;;;;;;4915759;29;20036;-80
2021/09/21 07:27:53;;;;;;;1.90;1.05;;;;;;;;;;4898737;29;20577;-79
2021/09/21 07:30:20;;;;;;;2.30;1.10;;;;;;;;;;4916980;29;20028;-81
2021/09/21 07:32:46;;;;;;;3.05;1.30;;;;;;;;;;4899994;29;20107;-81
2021/09/21 07:35:12;;;;;;;5.10;1.10;;;;;;;;;;4917065;29;20081;-77
2021/09/21 07:37:39;;;;;;;8.73;1.02;;;;;;;;;;4917432;29;20040;-83
2021/09/21 07:40:06;;;;;;;1.90;1.00;;;;;;;;;;4899951;29;20024;-81
2021/09/21 07:42:32;;;;;;;2.25;1.17;;;;;;;;;;4901787;29;20087;-77
2021/09/21 07:45:00;;;;;;;1.60;0.85;;;;;;;;;;4920739;29;20043;-76
2021/09/21 07:47:27;;;;;;;4.22;1.10;;;;;;;;;;4903880;29;20031;-78
2021/09/21 07:49:53;;;;;;;2.08;0.95;;;;;;;;;;4921157;29;20055;-77
2021/09/21 07:52:19;;;;;;;2.70;1.10;;;;;;;;;;4921170;29;20044;-77
2021/09/21 07:54:45;;;;;;;2.28;1.27;;;;;;;;;;4903998;29;20100;-77
2021/09/21 07:57:14;;;;;;;1.85;1.02;;;;;;;;;;4903600;29;20028;-76
2021/09/21 07:59:41;;;;;;;2.85;1.38;;;;;;;;;;4920607;29;20038;-77
2021/09/21 08:02:09;;;;;;;1.65;1.00;;;;;;;;;;4904078;29;20063;-82
2021/09/21 08:04:37;;;;;;;2.75;1.00;;;;;;;;;;4903489;29;20032;-82
2021/09/21 08:07:03;;;;;;;1.73;1.00;;;;;;;;;;4903528;29;20032;-82
2021/09/21 08:09:29;;;;;;;2.97;0.98;;;;;;;;;;4903479;29;20095;-81
2021/09/21 08:11:56;;;;;;;2.00;1.13;;;;;;;;;;4903348;29;20038;-76
2021/09/21 08:14:22;;;;;;;2.67;1.38;;;;;;;;;;4903475;29;20036;-77
2021/09/21 08:16:48;;;;;;;2.22;1.10;;;;;;;;;;4920188;29;20064;-78
2021/09/21 08:19:14;;;;;;;1.98;1.17;;;;;;;;;;4920369;29;20028;-77
2021/09/21 08:21:40;;;;;;;3.65;1.20;;;;;;;;;;4903340;29;20454;-82
2021/09/21 08:24:06;;;;;;;2.47;1.40;;;;;;;;;;4903327;29;20032;-78
2021/09/21 08:26:33;;;;;;;3.20;1.50;;;;;;;;;;4903159;29;20068;-78
2021/09/21 08:28:59;;;;;;;2.00;1.00;;;;;;;;;;4903007;29;20039;-82
2021/09/21 08:31:25;;;;;;;4.25;1.20;;;;;;;;;;4902990;29;20036;-77
2021/09/21 08:33:51;;;;;;;2.47;1.08;;;;;;;;;;4903080;29;20430;-78
2021/09/21 08:36:18;;;;;;;4.50;1.10;;;;;;;;;;4920184;29;20024;-80
2021/09/21 08:38:44;;;;;;;4.85;1.30;;;;;;;;;;4919918;29;20422;-82
2021/09/21 08:41:10;;;;;;;2.85;1.00;;;;;;;;;;4902804;29;20083;-80
2021/09/21 08:43:36;;;;;;;5.65;1.10;;;;;;;;;;4920544;29;20615;-81
2021/09/21 08:46:02;;;;;;;3.90;1.17;;;;;;;;;;4902881;29;20135;-81
2021/09/21 08:48:28;;;;;;;4.20;1.30;;;;;;;;;;4920105;29;20389;-81
2021/09/21 08:50:55;;;;;;;3.30;1.30;;;;;;;;;;4902827;29;20126;-79
2021/09/21 08:53:21;;;;;;;8.07;1.50;;;;;;;;;;4902496;29;20037;-77
2021/09/21 08:55:47;;;;;;;2.45;1.30;;;;;;;;;;4902730;29;20024;-78
2021/09/21 08:58:13;;;;;;;3.40;1.10;;;;;;;;;;4902831;29;20111;-80
2021/09/21 09:00:40;;;;;;;5.25;1.27;;;;;;;;;;4902696;29;20116;-82
2021/09/21 09:03:07;;;;;;;3.55;1.73;;;;;;;;;;4902665;29;20043;-81
2021/09/21 09:05:43;;;;;;;2.67;1.10;;;;;;;;;;4902391;29;20032;-77
2021/09/21 09:08:09;;;;;;;3.47;1.23;;;;;;;;;;4902776;29;20039;-78
2021/09/21 09:10:35;;;;;;;2.42;1.23;;;;;;;;;;4902521;29;20118;-82
2021/09/21 09:13:01;;;;;;;8.85;1.40;;;;;;;;;;4902807;29;20024;-82
2021/09/21 09:15:27;;;;;;;2.38;1.10;;;;;;;;;;4898977;29;20056;-77
2021/09/21 09:18:02;;;;;;;1.83;1.00;;;;;;;;;;4902572;29;20071;-76
2021/09/21 09:20:34;;;;;;;2.85;1.33;;;;;;;;;;4909084;29;20172;-77
2021/09/21 09:23:00;;;;;;;3.08;1.10;;;;;;;;;;4906335;29;20035;-79
2021/09/21 09:25:26;;;;;;;2.75;1.25;;;;;;;;;;4899162;29;20408;-80
2021/09/21 09:27:53;;;;;;;2.55;1.25;;;;;;;;;;4900351;29;20044;-81
2021/09/21 09:30:23;;;;;;;4.30;1.35;;;;;;;;;;4900140;29;20032;-81
2021/09/21 09:32:54;;;;;;;7.13;1.10;;;;;;;;;;4898850;29;20032;-82
2021/09/21 09:35:28;;;;;;;1.92;0.77;;;;;;;;;;4899941;29;20394;-83
2021/09/21 09:38:00;;;;;;;2.63;1.00;;;;;;;;;;4899984;29;20024;-84
2021/09/21 09:40:27;;;;;;;4.05;0.88;;;;;;;;;;4900286;29;20036;-83
2021/09/21 09:42:53;;;;;;;2.38;0.88;;;;;;;;;;4898705;29;20482;-83
2021/09/21 09:45:30;;;;;;;3.80;1.00;;;;;;;;;;4898497;29;20088;-81
2021/09/21 09:47:57;;;;;;;2.47;1.05;;;;;;;;;;4900684;29;20120;-83
2021/09/21 09:50:34;;;;;;;1.98;1.05;;;;;;;;;;4901071;29;20029;-84
2021/09/21 09:53:06;;;;;;;1.77;1.00;;;;;;;;;;4898577;29;20033;-83
2021/09/21 09:55:33;;;;;;;1.38;0.90;;;;;;;;;;4899691;29;20033;-83
2021/09/21 09:58:00;;;;;;;2.38;0.90;;;;;;;;;;4899047;29;20043;-82
2021/09/21 10:00:26;;;;;;;2.08;1.00;;;;;;;;;;4900307;29;20032;-83
2021/09/21 10:02:53;;;;;;;1.67;0.77;;;;;;;;;;4900404;29;20324;-80
2021/09/21 10:05:20;;;;;;;2.28;0.80;;;;;;;;;;4899883;29;20402;-83
2021/09/21 10:07:46;;;;;;;1.95;0.80;;;;;;;;;;4898309;29;20542;-82
2021/09/21 10:10:12;;;;;;;1.48;0.70;;;;;;;;;;4899421;29;20033;-82
2021/09/21 10:12:39;;;;;;;1.48;0.68;;;;;;;;;;4899298;29;20033;-82
2021/09/21 10:15:06;;;;;;;1.70;0.68;;;;;;;;;;4901572;29;20035;-83
2021/09/21 10:17:35;;;;;;;2.38;0.82;;;;;;;;;;4901129;29;20043;-83
2021/09/21 10:20:01;;;;;;;1.63;0.60;;;;;;;;;;4918305;29;20028;-79
2021/09/21 10:22:35;;;;;;;1.52;0.68;;;;;;;;;;4901004;29;20043;-82
2021/09/21 10:25:05;;;;;;;2.17;0.75;;;;;;;;;;4900869;29;20036;-83
2021/09/21 10:27:35;;;;;;;4.25;0.75;;;;;;;;;;4901089;29;20036;-78
2021/09/21 10:30:03;;;;;;;2.47;0.90;;;;;;;;;;4900972;29;20470;-82
2021/09/21 10:32:29;;;;;;;2.47;0.50;;;;;;;;;;4917912;29;20033;-78
2021/09/21 10:34:58;;;;;;;2.67;0.90;;;;;;;;;;4900711;29;20035;-79
2021/09/21 10:37:30;;;;;;;1.95;0.70;;;;;;;;;;4900835;29;20453;-79
2021/09/21 10:40:00;;;;;;;3.70;0.68;;;;;;;;;;4917760;29;20039;-82
2021/09/21 10:42:26;;;;;;;1.58;0.57;;;;;;;;;;4917758;29;20516;-79
2021/09/21 10:44:54;;;;;;;2.28;0.73;;;;;;;;;;4917635;29;20095;-79
2021/09/21 10:47:22;;;;;;;4.40;1.10;;;;;;;;;;4917599;29;20039;-83
2021/09/21 10:49:48;;;;;;;1.63;0.80;;;;;;;;;;4900636;29;20035;-78
2021/09/21 10:52:16;;;;;;;1.63;0.63;;;;;;;;;;4900663;29;20098;-82
2021/09/21 10:54:44;;;;;;;1.58;0.70;;;;;;;;;;4900838;29;20031;-80
2021/09/21 10:57:12;;;;;;;1.92;0.80;;;;;;;;;;4900391;29;20036;-84
2021/09/21 10:59:39;;;;;;;3.92;0.73;;;;;;;;;;4917769;29;20020;-80
2021/09/21 11:02:06;;;;;;;4.93;0.95;;;;;;;;;;4900421;29;20032;-80
2021/09/21 11:04:43;;;;;;;3.47;1.05;;;;;;;;;;4900373;29;20481;-81
2021/09/21 11:07:10;;;;;;;1.75;0.80;;;;;;;;;;4900369;29;20039;-81
2021/09/21 11:09:37;;;;;;;1.75;0.60;;;;;;;;;;4900322;29;20025;-78
2021/09/21 11:12:10;;;;;;;3.50;0.90;;;;;;;;;;4900378;29;20024;-77
2021/09/21 11:14:40;;;;;;;2.25;0.70;;;;;;;;;;4900427;29;20039;-77
2021/09/21 11:17:07;;;;;;;1.83;0.80;;;;;;;;;;4916427;29;20048;-76
2021/09/21 11:19:33;;;;;;;1.45;0.63;;;;;;;;;;4900312;29;20024;-76
2021/09/21 11:22:10;;;;;;;4.57;0.90;;;;;;;;;;4900207;29;20032;-76
2021/09/21 11:24:37;;;;;;;6.03;1.70;;;;;;;;;;4900254;29;20036;-76
2021/09/21 11:27:04;;;;;;;2.72;1.20;;;;;;;;;;4917149;29;20032;-76
2021/09/21 11:29:32;;;;;;;3.20;1.15;;;;;;;;;;4900133;29;20020;-76
2021/09/21 11:31:58;;;;;;;2.17;0.95;;;;;;;;;;4900107;29;20083;-77
2021/09/21 11:34:28;;;;;;;2.22;0.93;;;;;;;;;;4916985;29;20462;-77
2021/09/21 11:36:54;;;;;;;2.17;0.80;;;;;;;;;;4900153;29;20031;-77
2021/09/21 11:39:20;;;;;;;1.50;0.70;;;;;;;;;;4899999;29;20458;-77
2021/09/21 11:41:53;;;;;;;2.28;0.70;;;;;;;;;;4917311;29;20032;-76
2021/09/21 11:44:19;;;;;;;1.13;0.52;;;;;;;;;;4900073;29;20029;-76
2021/09/21 11:46:45;;;;;;;1.75;0.60;;;;;;;;;;4899921;29;20040;-78
2021/09/21 11:49:11;;;;;;;1.42;0.60;;;;;;;;;;4900049;29;20025;-77
2021/09/21 11:51:38;;;;;;;2.10;0.80;;;;;;;;;;4917305;29;20032;-77
2021/09/21 11:54:06;;;;;;;0.93;0.50;;;;;;;;;;4900224;29;20163;-76
2021/09/21 11:56:32;;;;;;;2.25;0.63;;;;;;;;;;4899873;29;20032;-77
2021/09/21 11:58:59;;;;;;;2.33;0.60;;;;;;;;;;4916894;29;20036;-78
2021/09/21 12:01:25;;;;;;;1.75;0.70;;;;;;;;;;4916829;29;20028;-76
2021/09/21 12:03:53;;;;;;;2.53;0.80;;;;;;;;;;4916847;29;20052;-77
2021/09/21 12:06:29;;;;;;;1.60;0.90;;;;;;;;;;4916435;29;20047;-78
2021/09/21 12:08:55;;;;;;;5.55;1.15;;;;;;;;;;4899747;29;20078;-79
2021/09/21 12:11:21;;;;;;;2.25;1.10;;;;;;;;;;4916726;29;20063;-77
2021/09/21 12:13:48;;;;;;;1.90;0.90;;;;;;;;;;4917021;29;20039;-77
2021/09/21 12:16:14;;;;;;;1.23;0.70;;;;;;;;;;4896429;29;20091;-76
2021/09/21 12:18:41;;;;;;;3.55;1.10;;;;;;;;;;4896553;29;20458;-81
2021/09/21 12:21:11;;;;;;;1.70;0.80;;;;;;;;;;4897712;29;20490;-77
2021/09/21 12:23:39;;;;;;;1.60;0.77;;;;;;;;;;4896681;29;20028;-77
2021/09/21 12:26:05;;;;;;;1.75;0.98;;;;;;;;;;4897359;29;20068;-75
2021/09/21 12:28:32;;;;;;;1.98;0.90;;;;;;;;;;4897433;29;20475;-76
2021/09/21 12:30:59;;;;;;;1.60;0.80;;;;;;;;;;4900982;29;20029;-78
2021/09/21 12:33:25;;;;;;;3.85;0.95;;;;;;;;;;4899950;29;20028;-77
2021/09/21 12:35:53;;;;;;;2.53;1.20;;;;;;;;;;4899742;29;20032;-79
2021/09/21 12:38:25;;;;;;;2.55;1.40;;;;;;;;;;4899874;29;20035;-76
2021/09/21 12:40:55;;;;;;;2.42;1.23;;;;;;;;;;4899641;29;20032;-77
2021/09/21 12:43:25;;;;;;;3.53;1.20;;;;;;;;;;4899717;29;20550;-79
2021/09/21 12:45:54;;;;;;;1.45;0.80;;;;;;;;;;4899586;29;20154;-80
2021/09/21 12:48:27;;;;;;;2.05;1.10;;;;;;;;;;4900911;29;20039;-78
2021/09/21 12:50:55;;;;;;;6.07;1.40;;;;;;;;;;4900942;29;20115;-80
2021/09/21 12:53:21;;;;;;;1.70;1.00;;;;;;;;;;4899586;29;20065;-78
2021/09/21 12:55:53;;;;;;;3.55;1.45;;;;;;;;;;4899279;29;20032;-77
2021/09/21 12:58:22;;;;;;;2.85;1.40;;;;;;;;;;4899411;29;20029;-81
2021/09/21 13:00:48;;;;;;;3.35;1.30;;;;;;;;;;4899492;29;20072;-78
2021/09/21 13:03:14;;;;;;;2.95;1.30;;;;;;;;;;4899269;29;20036;-77
2021/09/21 13:05:40;;;;;;;2.20;1.20;;;;;;;;;;4900587;29;20550;-77
2021/09/21 13:08:07;;;;;;;3.17;1.50;;;;;;;;;;4899137;29;20031;-78
2021/09/21 13:10:33;;;;;;;2.40;1.23;;;;;;;;;;4899304;29;20459;-77
2021/09/21 13:13:07;;;;;;;7.40;1.63;;;;;;;;;;4899139;29;20036;-79
2021/09/21 13:15:34;;;;;;;2.78;1.58;;;;;;;;;;4898995;29;20063;-77
2021/09/21 13:18:01;;;;;;;3.72;1.60;;;;;;;;;;4900691;29;20386;-78
2021/09/21 13:20:27;;;;;;;2.65;1.17;;;;;;;;;;4900573;29;20024;-77
2021/09/21 13:22:55;;;;;;;2.38;1.48;;;;;;;;;;4898866;29;20033;-78
2021/09/21 13:25:22;;;;;;;4.18;1.67;;;;;;;;;;4899004;29;20099;-80
2021/09/21 13:27:49;;;;;;;3.15;1.60;;;;;;;;;;4898424;29;20036;-76
2021/09/21 13:30:16;;;;;;;2.53;1.60;;;;;;;;;;4898932;29;20081;-77
2021/09/21 13:32:42;;;;;;;3.45;1.50;;;;;;;;;;4900130;29;20076;-79
2021/09/21 13:35:10;;;;;;;4.10;1.77;;;;;;;;;;4899892;29;20119;-77
2021/09/21 13:37:38;;;;;;;4.50;1.52;;;;;;;;;;4899399;29;20115;-76
2021/09/21 13:40:04;;;;;;;3.45;1.60;;;;;;;;;;4898089;29;20366;-78
2021/09/21 13:42:30;;;;;;;4.60;1.85;;;;;;;;;;4898711;29;20475;-77
2021/09/21 13:44:56;;;;;;;2.88;1.58;;;;;;;;;;4898576;29;20553;-77
2021/09/21 13:47:22;;;;;;;3.50;1.95;;;;;;;;;;4898585;29;20035;-77
2021/09/21 13:49:50;;;;;;;2.67;1.60;;;;;;;;;;4899001;29;20151;-77
2021/09/21 13:52:16;;;;;;;3.05;1.42;;;;;;;;;;4899986;29;20021;-78
2021/09/21 13:54:42;;;;;;;2.85;1.50;;;;;;;;;;4899776;29;20043;-77
2021/09/21 13:57:09;;;;;;;3.25;1.48;;;;;;;;;;4898350;29;20033;-78
2021/09/21 13:59:36;;;;;;;4.72;1.73;;;;;;;;;;4898443;29;20032;-78
2021/09/21 14:02:06;;;;;;;4.57;1.90;;;;;;;;;;4898356;29;20025;-77
2021/09/21 14:04:32;;;;;;;2.97;1.55;;;;;;;;;;4898336;29;20406;-79
2021/09/21 14:06:59;;;;;;;3.70;1.77;;;;;;;;;;4898069;29;20075;-79
2021/09/21 14:09:25;;;;;;;2.83;1.73;;;;;;;;;;4898192;29;20033;-76
2021/09/21 14:11:52;;;;;;;3.30;1.70;;;;;;;;;;4899393;29;20033;-78
2021/09/21 14:14:18;;;;;;;2.95;1.70;;;;;;;;;;4898175;29;20496;-79
2021/09/21 14:16:44;;;;;;;3.60;1.73;;;;;;;;;;4897881;29;20052;-77
2021/09/21 14:19:10;;;;;;;7.85;1.92;;;;;;;;;;4897896;29;20545;-78
2021/09/21 14:21:37;;;;;;;3.35;1.80;;;;;;;;;;4897946;29;20051;-75
2021/09/21 14:24:03;;;;;;;4.45;1.40;;;;;;;;;;4897884;29;20526;-78
2021/09/21 14:26:29;;;;;;;3.85;1.90;;;;;;;;;;4897820;29;20127;-77
2021/09/21 14:28:55;;;;;;;2.90;1.67;;;;;;;;;;4897743;29;20035;-81
2021/09/21 14:31:22;;;;;;;3.95;1.70;;;;;;;;;;4898952;29;20036;-77
2021/09/21 14:33:49;;;;;;;3.80;1.88;;;;;;;;;;4899170;29;20032;-77
2021/09/21 14:36:15;;;;;;;2.50;1.60;;;;;;;;;;4898176;29;20116;-78
2021/09/21 14:38:42;;;;;;;4.30;2.25;;;;;;;;;;4899183;29;20029;-78
2021/09/21 14:41:09;;;;;;;3.00;1.67;;;;;;;;;;4899192;29;20049;-79
2021/09/21 14:43:37;;;;;;;3.47;2.10;;;;;;;;;;4899095;29;20474;-77
2021/09/21 14:46:04;;;;;;;3.65;1.92;;;;;;;;;;4897707;29;20057;-77
2021/09/21 14:48:31;;;;;;;2.85;1.50;;;;;;;;;;4899153;29;20033;-78
2021/09/21 14:50:57;;;;;;;7.53;2.00;;;;;;;;;;4897599;29;20063;-78
2021/09/21 14:53:24;;;;;;;2.92;1.73;;;;;;;;;;4899310;29;20063;-79
2021/09/21 14:55:50;;;;;;;2.70;1.77;;;;;;;;;;4898869;29;20099;-77